createdAt,value
2022-11-06T00:01:59.353Z,12.00
2022-11-06T00:04:30.094Z,13.40
2022-11-06T00:06:57.337Z,14.20
2022-11-06T00:09:24.705Z,14.40
2022-11-06T00:11:53.034Z,13.02
2022-11-06T00:14:20.213Z,13.98
2022-11-06T00:16:48.271Z,13.13
2022-11-06T00:19:16.621Z,13.80
2022-11-06T00:21:44.604Z,12.80
2022-11-06T00:24:14.237Z,12.88
2022-11-06T00:26:42.565Z,13.52
2022-11-06T00:29:14.993Z,14.00
2022-11-06T00:31:42.741Z,12.30
2022-11-06T00:34:10.787Z,12.15
2022-11-06T00:36:38.530Z,12.57
2022-11-06T00:39:05.884Z,12.52
2022-11-06T00:41:33.140Z,12.43
2022-11-06T00:44:02.607Z,12.77
2022-11-06T00:46:30.470Z,12.82
2022-11-06T00:48:57.947Z,12.38
2022-11-06T00:51:35.767Z,13.23
2022-11-06T00:54:06.213Z,12.45
2022-11-06T00:56:34.292Z,12.95
2022-11-06T00:59:06.028Z,14.00
2022-11-06T01:01:39.959Z,13.40
2022-11-06T01:04:17.961Z,13.73
2022-11-06T01:06:53.134Z,13.80
2022-11-06T01:09:26.449Z,15.45
2022-11-06T01:12:12.928Z,15.30
2022-11-06T01:14:41.903Z,13.73
2022-11-06T01:17:09.195Z,14.15
2022-11-06T01:19:36.716Z,13.98
2022-11-06T01:22:04.025Z,14.70
2022-11-06T01:24:31.883Z,14.35
2022-11-06T01:27:24.955Z,13.65
2022-11-06T01:29:46.423Z,14.00
2022-11-06T01:32:13.984Z,14.70
2022-11-06T01:34:41.163Z,13.40
2022-11-06T01:37:13.243Z,14.55
2022-11-06T01:39:41.957Z,14.60
2022-11-06T01:42:13.207Z,15.25
2022-11-06T01:44:43.367Z,15.52
2022-11-06T01:47:28.609Z,16.35
2022-11-06T01:50:05.692Z,13.40
2022-11-06T01:52:34.637Z,14.50
2022-11-06T01:55:25.973Z,13.88
2022-11-06T01:57:54.229Z,15.43
2022-11-06T02:00:21.704Z,13.90
2022-11-06T02:02:50.272Z,14.90
2022-11-06T02:05:17.947Z,14.50
2022-11-06T02:07:45.944Z,13.93
2022-11-06T02:10:13.152Z,13.18
2022-11-06T02:13:23.066Z,14.48
2022-11-06T05:13:48.332Z,26.42
2022-11-06T05:16:15.549Z,24.13
2022-11-06T05:18:42.780Z,24.67
2022-11-06T05:21:29.357Z,23.75
2022-11-06T05:23:56.554Z,22.33
2022-11-06T05:26:23.922Z,23.42
2022-11-06T05:28:51.219Z,25.58
2022-11-06T05:31:18.382Z,24.33
2022-11-06T05:33:45.574Z,25.27
2022-11-06T05:36:12.983Z,23.38
2022-11-06T05:38:40.312Z,24.85
2022-11-06T05:41:07.605Z,24.00
2022-11-06T05:43:35.043Z,22.67
2022-11-06T05:46:02.360Z,23.27
2022-11-06T05:48:29.966Z,26.65
2022-11-06T05:51:03.273Z,24.48
2022-11-06T05:53:36.035Z,24.40
2022-11-06T05:56:05.032Z,24.52
2022-11-06T05:58:32.406Z,25.73
2022-11-06T06:01:00.083Z,29.00
2022-11-06T06:03:27.745Z,26.10
2022-11-06T06:05:55.070Z,25.77
2022-11-06T06:08:22.349Z,26.65
2022-11-06T06:10:50.079Z,26.00
2022-11-06T06:13:17.673Z,26.23
2022-11-06T06:15:45.316Z,25.02
2022-11-06T06:18:13.115Z,25.02
2022-11-06T06:20:40.677Z,25.73
2022-11-06T06:23:09.591Z,27.77
2022-11-06T06:25:36.995Z,25.80
2022-11-06T06:28:04.309Z,28.20
2022-11-06T06:30:32.133Z,28.65
2022-11-06T06:33:05.841Z,30.33
2022-11-06T06:35:34.070Z,29.60
2022-11-06T06:38:01.337Z,26.90
2022-11-06T06:40:29.847Z,31.90
2022-11-06T06:42:58.824Z,25.80
2022-11-06T06:45:26.863Z,29.42
2022-11-06T07:02:37.690Z,28.77
2022-11-06T07:05:05.349Z,26.08
2022-11-06T07:07:34.964Z,24.95
2022-11-06T07:10:02.192Z,24.05
2022-11-06T07:12:29.513Z,23.38
2022-11-06T07:14:56.710Z,24.77
2022-11-06T07:17:23.981Z,24.83
2022-11-06T07:19:51.284Z,24.55
2022-11-06T07:22:25.258Z,26.15
2022-11-06T07:24:56.919Z,21.35
2022-11-06T07:27:24.316Z,22.52
2022-11-06T07:29:51.678Z,22.67
2022-11-06T07:32:19.135Z,22.33
2022-11-06T07:34:46.597Z,26.02
2022-11-06T07:37:13.803Z,23.73
2022-11-06T07:39:41.020Z,24.85
2022-11-06T07:42:08.567Z,22.95
2022-11-06T07:44:38.028Z,23.08
2022-11-06T07:47:06.633Z,23.50
2022-11-06T07:49:33.887Z,23.65
2022-11-06T07:52:01.208Z,23.85
2022-11-06T07:54:28.711Z,23.60
2022-11-06T07:56:56.703Z,24.50
2022-11-06T07:59:24.249Z,25.05
2022-11-06T08:01:51.865Z,25.17
2022-11-06T08:04:19.291Z,24.92
2022-11-06T08:06:46.731Z,25.60
2022-11-06T08:09:14.035Z,23.85
2022-11-06T08:11:41.384Z,23.83
2022-11-06T08:14:08.646Z,25.10
2022-11-06T08:16:35.910Z,24.77
2022-11-06T08:19:03.392Z,27.98
2022-11-06T08:21:30.692Z,25.92
2022-11-06T08:23:58.349Z,26.42
2022-11-06T08:26:26.372Z,25.38
2022-11-06T08:28:54.713Z,30.63
2022-11-06T08:31:21.994Z,28.15
2022-11-06T08:33:49.410Z,28.25
2022-11-06T08:36:16.941Z,27.27
2022-11-06T08:38:47.389Z,28.77
2022-11-06T08:41:15.157Z,27.55
2022-11-06T08:43:42.607Z,28.60
2022-11-06T08:46:10.921Z,29.88
2022-11-06T08:48:38.438Z,27.05
2022-11-06T08:51:06.526Z,29.88
2022-11-06T08:53:34.205Z,27.27
2022-11-06T08:56:04.800Z,29.20
2022-11-06T08:58:32.177Z,25.77
2022-11-06T09:00:59.822Z,26.58
2022-11-06T09:03:27.101Z,32.72
2022-11-06T09:05:54.370Z,27.27
2022-11-06T09:08:21.725Z,28.23
2022-11-06T09:10:50.452Z,25.17
2022-11-06T09:13:19.588Z,21.17
2022-11-06T09:15:47.100Z,25.00
2022-11-06T09:18:14.343Z,23.63
2022-11-06T09:20:41.670Z,24.63
2022-11-06T09:23:09.960Z,22.83
2022-11-06T09:25:37.191Z,21.08
2022-11-06T09:28:04.902Z,23.17
2022-11-06T09:30:32.787Z,22.75
2022-11-06T09:33:02.728Z,22.13
2022-11-06T09:35:34.187Z,21.65
2022-11-06T09:38:07.168Z,24.02
2022-11-06T09:40:50.901Z,22.25
2022-11-06T09:46:32.206Z,22.58
2022-11-06T09:49:22.875Z,20.55
2022-11-06T09:52:02.563Z,22.60
2022-11-06T09:54:42.699Z,20.60
2022-11-06T09:57:33.636Z,21.80
2022-11-06T10:00:03.128Z,19.73
2022-11-06T10:02:48.994Z,22.08
2022-11-06T10:05:31.312Z,20.35
2022-11-06T10:08:17.821Z,18.30
2022-11-06T10:11:17.412Z,18.15
2022-11-06T10:14:47.611Z,18.67
2022-11-06T10:17:35.961Z,17.73
2022-11-06T10:20:29.612Z,19.77
2022-11-06T10:23:05.830Z,20.58
2022-11-06T10:26:16.059Z,19.88
2022-11-06T10:28:52.872Z,18.25
2022-11-06T10:32:25.358Z,19.02
2022-11-06T10:35:07.044Z,20.60
2022-11-06T10:38:07.876Z,20.13
2022-11-06T10:40:35.511Z,22.55
2022-11-06T10:43:35.609Z,20.08
2022-11-06T10:46:42.117Z,20.67
2022-11-06T10:49:50.094Z,19.65
2022-11-06T10:52:52.682Z,20.60
2022-11-06T10:55:54.676Z,19.67
2022-11-06T10:58:27.949Z,20.60
2022-11-06T11:01:02.986Z,20.35
2022-11-06T11:03:43.082Z,22.08
2022-11-06T11:06:10.530Z,23.40
2022-11-06T11:08:44.111Z,20.88
2022-11-06T11:11:14.265Z,25.30
2022-11-06T11:14:01.659Z,21.38
2022-11-06T11:16:41.025Z,22.08
2022-11-06T11:19:26.680Z,21.98
2022-11-06T11:22:05.970Z,21.95
2022-11-06T11:24:33.402Z,21.00
2022-11-06T11:27:05.452Z,23.40
2022-11-06T11:29:48.271Z,22.48
2022-11-06T11:32:18.237Z,21.63
2022-11-06T11:34:56.866Z,22.83
2022-11-06T11:37:33.301Z,22.98
2022-11-06T11:40:38.049Z,22.83
2022-11-06T11:43:24.540Z,20.67
2022-11-06T11:46:09.649Z,20.08
2022-11-06T11:48:52.826Z,20.52
2022-11-06T11:51:40.624Z,20.98
2022-11-06T11:54:13.855Z,19.30
2022-11-06T11:57:19.103Z,18.92
2022-11-06T11:59:53.130Z,21.13
2022-11-06T12:02:42.728Z,19.23
2022-11-06T12:05:28.259Z,23.90
2022-11-06T12:07:58.365Z,17.50
2022-11-06T12:10:43.325Z,20.80
2022-11-06T12:13:13.310Z,21.17
2022-11-06T12:16:10.787Z,21.23
2022-11-06T12:18:47.953Z,22.33
2022-11-06T12:21:34.362Z,21.75
2022-11-06T12:24:11.304Z,23.17
2022-11-06T12:27:14.345Z,21.70
2022-11-06T12:29:48.375Z,20.20
2022-11-06T12:32:34.201Z,21.73
2022-11-06T12:35:13.812Z,21.17
2022-11-06T12:38:11.041Z,21.10
2022-11-06T12:40:40.560Z,19.05
2022-11-06T12:43:39.127Z,16.33
2022-11-06T12:46:27.937Z,17.85
2022-11-06T12:49:28.170Z,17.48
2022-11-06T12:52:36.393Z,15.88
2022-11-06T12:55:33.437Z,16.13
2022-11-06T12:58:42.365Z,13.70
2022-11-06T13:02:18.678Z,15.40
2022-11-06T13:05:20.195Z,13.95
2022-11-06T13:07:56.132Z,15.23
2022-11-06T13:11:16.385Z,15.30
2022-11-06T13:14:07.685Z,15.15
2022-11-06T13:16:48.587Z,15.70
2022-11-06T13:22:39.971Z,17.90
2022-11-06T13:25:46.465Z,17.90
2022-11-06T13:28:16.763Z,17.60
2022-11-06T13:30:45.621Z,17.30
2022-11-06T13:33:30.479Z,16.85
2022-11-06T13:36:00.331Z,17.65
2022-11-06T13:38:41.776Z,18.33
2022-11-06T13:41:27.623Z,19.35
2022-11-06T13:44:16.699Z,17.90
2022-11-06T13:47:03.502Z,19.23
2022-11-06T13:50:19.737Z,18.23
2022-11-06T13:52:59.418Z,18.10
2022-11-06T13:56:29.816Z,18.40
2022-11-06T13:59:34.296Z,19.20
2022-11-06T14:02:22.693Z,19.67
2022-11-06T14:05:45.598Z,18.95
2022-11-06T14:08:49.921Z,19.52
2022-11-06T14:11:21.685Z,20.75
2022-11-06T14:14:04.420Z,20.13
2022-11-06T14:16:37.572Z,20.75
2022-11-06T14:19:12.157Z,21.17
2022-11-06T14:21:50.914Z,20.45
2022-11-06T14:24:33.665Z,21.95
2022-11-06T14:27:26.536Z,20.77
2022-11-06T14:30:07.121Z,20.85
2022-11-06T14:32:41.318Z,21.67
2022-11-06T14:35:31.101Z,23.38
2022-11-06T14:38:10.954Z,22.70
2022-11-06T14:40:39.753Z,20.42
2022-11-06T14:43:35.915Z,21.80
2022-11-06T14:46:22.805Z,21.27
2022-11-06T14:48:54.368Z,20.98
2022-11-06T14:51:29.565Z,24.25
2022-11-06T14:54:07.314Z,23.42
2022-11-06T14:56:39.459Z,22.35
2022-11-06T14:59:30.198Z,22.33
2022-11-06T15:02:26.866Z,24.50
2022-11-06T15:05:19.488Z,19.95
2022-11-06T15:08:04.398Z,19.23
2022-11-06T15:10:44.061Z,21.73
2022-11-06T15:13:18.160Z,19.20
2022-11-06T15:15:50.388Z,22.30
2022-11-06T15:18:25.250Z,23.23
2022-11-06T15:21:01.996Z,23.98
2022-11-06T15:23:53.655Z,22.55
2022-11-06T15:26:33.767Z,22.92
2022-11-06T15:29:00.999Z,22.60
2022-11-06T15:31:30.954Z,21.48
2022-11-06T15:34:04.307Z,21.77
2022-11-06T15:36:40.253Z,21.60
2022-11-06T15:40:04.093Z,21.13
2022-11-06T15:42:41.124Z,21.08
2022-11-06T15:45:12.984Z,21.17
2022-11-06T15:47:40.213Z,21.08
2022-11-06T15:50:23.787Z,20.02
2022-11-06T15:52:51.377Z,25.25
2022-11-06T15:55:33.141Z,26.05
2022-11-06T15:58:17.311Z,25.77
2022-11-06T16:00:46.079Z,26.00
2022-11-06T16:03:18.279Z,27.70
2022-11-06T16:05:47.359Z,29.05
2022-11-06T16:08:17.724Z,29.85
2022-11-06T16:10:50.133Z,29.23
2022-11-06T16:13:22.978Z,30.25
2022-11-06T16:15:53.683Z,28.17
2022-11-06T16:21:08.583Z,27.88
2022-11-06T16:23:45.491Z,31.48
2022-11-06T16:26:26.423Z,28.35
2022-11-06T16:28:56.435Z,29.42
2022-11-06T16:31:27.751Z,30.67
2022-11-06T16:34:04.995Z,29.25
2022-11-06T16:36:52.471Z,29.25
2022-11-06T16:39:40.068Z,27.30
2022-11-06T16:42:22.140Z,29.98
2022-11-06T16:44:59.289Z,27.25
2022-11-06T16:47:26.863Z,29.98
2022-11-06T16:49:58.701Z,39.70
2022-11-06T16:52:28.249Z,43.08
2022-11-06T16:55:10.265Z,39.38
2022-11-06T16:57:50.203Z,27.55
2022-11-06T17:00:20.510Z,29.05
2022-11-06T17:03:04.689Z,28.48
2022-11-06T17:05:37.914Z,28.98
2022-11-06T17:08:27.505Z,29.52
2022-11-06T17:10:59.718Z,29.27
2022-11-06T17:13:31.560Z,30.33
2022-11-06T17:16:05.079Z,28.05
2022-11-06T17:18:38.897Z,31.48
2022-11-06T17:21:15.833Z,29.23
2022-11-06T17:23:43.615Z,31.63
2022-11-06T17:26:28.398Z,31.95
2022-11-06T17:28:57.554Z,31.42
2022-11-06T17:31:26.228Z,32.40
2022-11-06T17:33:54.651Z,32.33
2022-11-06T17:36:28.034Z,30.23
2022-11-06T17:38:57.870Z,33.22
2022-11-06T17:41:32.761Z,27.80
2022-11-06T17:44:04.262Z,29.77
2022-11-06T17:46:35.273Z,32.53
2022-11-06T17:49:03.830Z,30.10
2022-11-06T17:51:50.129Z,31.15
2022-11-06T17:54:26.901Z,29.05
2022-11-06T17:56:55.985Z,30.35
2022-11-06T17:59:26.570Z,30.02
2022-11-06T18:01:55.448Z,28.92
2022-11-06T18:04:25.794Z,29.77
2022-11-06T18:06:54.764Z,31.73
2022-11-06T18:09:23.421Z,28.65
2022-11-06T18:11:53.910Z,29.80
2022-11-06T18:14:23.181Z,32.92
2022-11-06T18:16:51.170Z,31.38
2022-11-06T18:19:23.548Z,30.23
2022-11-06T18:21:51.655Z,30.60
2022-11-06T18:24:19.098Z,38.50
2022-11-06T18:26:46.477Z,38.08
2022-11-06T18:29:14.659Z,42.50
2022-11-06T18:31:42.571Z,39.60
2022-11-06T18:34:20.319Z,30.77
2022-11-06T18:36:50.605Z,33.42
2022-11-06T18:39:18.524Z,33.10
2022-11-06T18:41:45.906Z,34.35
2022-11-06T18:44:15.815Z,36.00
2022-11-06T18:46:43.076Z,33.50
2022-11-06T18:49:11.779Z,33.55
2022-11-06T18:51:40.549Z,34.47
2022-11-06T18:54:12.153Z,33.05
2022-11-06T18:56:39.816Z,33.30
2022-11-06T18:59:13.447Z,30.98
2022-11-06T19:01:40.948Z,31.38
2022-11-06T19:04:10.686Z,34.05
2022-11-06T19:06:40.299Z,33.17
2022-11-06T19:09:09.480Z,32.97
2022-11-06T19:11:37.279Z,35.60
2022-11-06T19:14:04.617Z,31.90
2022-11-06T19:16:32.181Z,33.65
2022-11-06T19:19:05.580Z,32.50
2022-11-06T19:21:34.283Z,32.78
2022-11-06T19:24:04.673Z,34.13
2022-11-06T19:26:35.844Z,33.08
2022-11-06T19:29:08.805Z,32.92
2022-11-06T19:31:37.954Z,31.90
2022-11-06T19:34:08.852Z,30.48
2022-11-06T19:36:36.829Z,30.42
2022-11-06T19:39:05.141Z,30.23
2022-11-06T19:41:33.028Z,33.45
2022-11-06T19:44:00.481Z,29.88
2022-11-06T19:46:33.990Z,28.70
2022-11-06T19:49:05.686Z,29.52
2022-11-06T19:51:34.765Z,28.10
2022-11-06T19:54:02.705Z,30.80
2022-11-06T19:56:30.250Z,30.23
2022-11-06T19:58:58.335Z,29.73
2022-11-06T20:01:26.100Z,31.05
2022-11-06T20:03:54.158Z,28.77
2022-11-06T20:06:23.323Z,27.15
2022-11-06T20:08:51.549Z,27.05
2022-11-06T20:11:19.774Z,27.42
2022-11-06T20:13:47.545Z,26.50
2022-11-06T20:16:20.469Z,27.17
2022-11-06T20:18:54.835Z,25.73
2022-11-06T20:21:27.252Z,26.75
2022-11-06T20:23:57.758Z,26.88
2022-11-06T20:26:26.237Z,26.40
2022-11-06T20:28:53.832Z,25.38
2022-11-06T20:31:21.909Z,23.65
2022-11-06T20:33:50.561Z,23.15
2022-11-06T20:36:28.553Z,26.00
2022-11-06T20:38:59.554Z,24.55
2022-11-06T20:41:29.151Z,23.35
2022-11-06T20:43:57.116Z,23.40
2022-11-06T20:46:25.467Z,21.67
2022-11-06T20:48:53.241Z,21.48
2022-11-06T20:51:24.993Z,19.55
2022-11-06T20:53:52.996Z,18.88
2022-11-06T20:56:25.212Z,18.73
2022-11-06T20:58:57.230Z,18.85
2022-11-06T21:01:30.103Z,16.92
2022-11-06T21:03:59.712Z,18.25
2022-11-06T21:06:29.328Z,16.85
2022-11-06T21:08:57.213Z,18.77
2022-11-06T21:11:27.462Z,19.45
2022-11-06T21:13:55.790Z,19.38
2022-11-06T21:16:30.663Z,16.15
2022-11-06T21:19:00.237Z,18.30
2022-11-06T21:21:33.155Z,18.70
2022-11-06T21:24:02.390Z,17.70
2022-11-06T21:26:37.050Z,16.08
2022-11-06T21:29:11.050Z,14.80
2022-11-06T21:31:45.738Z,16.25
2022-11-06T21:34:17.565Z,17.67
2022-11-06T21:36:45.772Z,15.85
2022-11-06T21:39:17.751Z,16.35
2022-11-06T21:41:46.298Z,15.80
2022-11-06T21:44:17.560Z,17.60
2022-11-06T21:46:46.102Z,15.60
2022-11-06T21:49:14.410Z,15.93
2022-11-06T21:51:42.022Z,16.85
2022-11-06T21:54:30.750Z,16.88
2022-11-06T21:56:58.353Z,14.80
2022-11-06T21:59:28.793Z,15.75
2022-11-06T22:01:56.654Z,15.13
2022-11-06T22:04:24.309Z,16.85
2022-11-06T22:06:52.610Z,16.90
2022-11-06T22:09:24.807Z,16.05
2022-11-06T22:11:52.892Z,17.23
2022-11-06T22:14:20.200Z,15.65
2022-11-06T22:16:48.110Z,14.70
2022-11-06T22:19:17.818Z,15.70
2022-11-06T22:21:45.553Z,14.43
2022-11-06T22:24:14.505Z,14.05
2022-11-06T22:26:41.974Z,15.27
2022-11-06T22:29:12.944Z,13.88
2022-11-06T22:31:40.843Z,14.98
2022-11-06T22:34:10.400Z,15.50
2022-11-06T22:36:38.584Z,15.75
2022-11-06T22:39:09.278Z,16.50
2022-11-06T22:41:37.344Z,15.25
2022-11-06T22:44:05.300Z,14.82
2022-11-06T22:46:33.094Z,14.40
2022-11-06T22:49:00.708Z,15.70
2022-11-06T22:51:31.109Z,13.88
2022-11-06T22:53:58.912Z,15.07
2022-11-06T22:56:28.147Z,14.88
2022-11-06T22:59:04.285Z,15.27
2022-11-06T23:01:37.263Z,14.75
2022-11-06T23:04:15.046Z,14.05
2022-11-06T23:06:44.514Z,14.07
2022-11-06T23:09:12.881Z,13.40
2022-11-06T23:11:40.261Z,12.80
2022-11-06T23:14:09.132Z,10.95
2022-11-06T23:16:55.931Z,13.05
2022-11-06T23:19:23.826Z,13.10
2022-11-06T23:22:13.911Z,11.68
2022-11-06T23:24:41.180Z,12.23
2022-11-06T23:27:10.590Z,14.70
2022-11-06T23:29:37.943Z,16.92
2022-11-06T23:32:05.842Z,15.68
2022-11-06T23:34:33.183Z,13.15
2022-11-06T23:37:00.485Z,13.82
2022-11-06T23:39:27.701Z,13.60
2022-11-06T23:41:55.017Z,20.73
2022-11-06T23:44:41.325Z,19.20
2022-11-06T23:47:08.465Z,16.95
2022-11-06T23:49:35.673Z,17.75
2022-11-06T23:52:02.994Z,18.23
2022-11-06T23:54:30.243Z,17.55
2022-11-06T23:56:57.601Z,16.63
2022-11-06T23:59:24.884Z,15.75
